sensor_id;sensor_type;location;lat;lon;timestamp;P1;durP1;ratioP1;P2;durP2;ratioP2
43626;SDS011;29217;52.586;13.442;2022-08-19T00:02:24;14.52;;;11.23;;
43626;SDS011;29217;52.586;13.442;2022-08-19T00:04:50;15.80;;;10.63;;
43626;SDS011;29217;52.586;13.442;2022-08-19T00:07:17;16.77;;;11.18;;
43626;SDS011;29217;52.586;13.442;2022-08-19T00:09:44;17.35;;;12.35;;
43626;SDS011;29217;52.586;13.442;2022-08-19T00:12:10;15.68;;;11.48;;
43626;SDS011;29217;52.586;13.442;2022-08-19T00:14:36;14.80;;;12.00;;
43626;SDS011;29217;52.586;13.442;2022-08-19T00:17:03;16.73;;;13.05;;
43626;SDS011;29217;52.586;13.442;2022-08-19T00:19:31;14.20;;;11.80;;
43626;SDS011;29217;52.586;13.442;2022-08-19T00:21:57;18.00;;;12.10;;
43626;SDS011;29217;52.586;13.442;2022-08-19T00:24:23;15.45;;;12.52;;
43626;SDS011;29217;52.586;13.442;2022-08-19T00:26:50;15.05;;;12.23;;
43626;SDS011;29217;52.586;13.442;2022-08-19T00:29:16;16.10;;;12.25;;
43626;SDS011;29217;52.586;13.442;2022-08-19T00:31:44;17.00;;;13.13;;
43626;SDS011;29217;52.586;13.442;2022-08-19T00:34:11;18.60;;;12.13;;
43626;SDS011;29217;52.586;13.442;2022-08-19T00:36:37;18.00;;;14.10;;
43626;SDS011;29217;52.586;13.442;2022-08-19T00:39:03;17.92;;;12.43;;
43626;SDS011;29217;52.586;13.442;2022-08-19T00:41:29;16.08;;;13.30;;
43626;SDS011;29217;52.586;13.442;2022-08-19T00:46:32;16.50;;;12.55;;
43626;SDS011;29217;52.586;13.442;2022-08-19T00:49:02;16.73;;;12.40;;
43626;SDS011;29217;52.586;13.442;2022-08-19T00:51:32;17.35;;;12.80;;
43626;SDS011;29217;52.586;13.442;2022-08-19T00:53:58;16.77;;;12.45;;
43626;SDS011;29217;52.586;13.442;2022-08-19T00:56:25;15.68;;;12.60;;
43626;SDS011;29217;52.586;13.442;2022-08-19T00:58:51;17.70;;;12.90;;
43626;SDS011;29217;52.586;13.442;2022-08-19T01:01:19;15.82;;;12.57;;
43626;SDS011;29217;52.586;13.442;2022-08-19T01:03:44;16.95;;;12.93;;
43626;SDS011;29217;52.586;13.442;2022-08-19T01:06:10;20.83;;;13.93;;
43626;SDS011;29217;52.586;13.442;2022-08-19T01:08:35;18.83;;;13.80;;
43626;SDS011;29217;52.586;13.442;2022-08-19T01:11:02;22.58;;;14.05;;
43626;SDS011;29217;52.586;13.442;2022-08-19T01:13:29;18.85;;;12.82;;
43626;SDS011;29217;52.586;13.442;2022-08-19T01:16:08;17.77;;;14.10;;
43626;SDS011;29217;52.586;13.442;2022-08-19T01:18:36;18.73;;;13.70;;
43626;SDS011;29217;52.586;13.442;2022-08-19T01:21:11;18.58;;;13.80;;
43626;SDS011;29217;52.586;13.442;2022-08-19T01:23:43;24.10;;;14.02;;
43626;SDS011;29217;52.586;13.442;2022-08-19T01:26:10;18.75;;;13.02;;
43626;SDS011;29217;52.586;13.442;2022-08-19T01:28:39;18.42;;;13.60;;
43626;SDS011;29217;52.586;13.442;2022-08-19T01:31:06;18.58;;;12.98;;
43626;SDS011;29217;52.586;13.442;2022-08-19T01:33:38;17.73;;;13.48;;
43626;SDS011;29217;52.586;13.442;2022-08-19T01:36:07;18.02;;;14.13;;
43626;SDS011;29217;52.586;13.442;2022-08-19T01:38:38;15.98;;;12.73;;
43626;SDS011;29217;52.586;13.442;2022-08-19T01:41:05;17.92;;;12.82;;
43626;SDS011;29217;52.586;13.442;2022-08-19T01:43:31;15.98;;;13.05;;
43626;SDS011;29217;52.586;13.442;2022-08-19T01:45:57;16.58;;;13.48;;
43626;SDS011;29217;52.586;13.442;2022-08-19T01:48:23;19.83;;;13.35;;
43626;SDS011;29217;52.586;13.442;2022-08-19T01:50:48;18.45;;;14.10;;
43626;SDS011;29217;52.586;13.442;2022-08-19T01:53:14;29.02;;;13.73;;
43626;SDS011;29217;52.586;13.442;2022-08-19T01:55:40;18.73;;;14.10;;
43626;SDS011;29217;52.586;13.442;2022-08-19T01:58:08;20.60;;;14.25;;
43626;SDS011;29217;52.586;13.442;2022-08-19T02:00:39;23.15;;;13.55;;
43626;SDS011;29217;52.586;13.442;2022-08-19T02:03:06;21.85;;;13.73;;
43626;SDS011;29217;52.586;13.442;2022-08-19T02:05:32;20.23;;;14.60;;
43626;SDS011;29217;52.586;13.442;2022-08-19T02:07:57;21.95;;;14.85;;
43626;SDS011;29217;52.586;13.442;2022-08-19T02:10:24;20.80;;;15.05;;
43626;SDS011;29217;52.586;13.442;2022-08-19T02:12:50;24.92;;;15.13;;
43626;SDS011;29217;52.586;13.442;2022-08-19T02:15:16;24.40;;;14.68;;
43626;SDS011;29217;52.586;13.442;2022-08-19T02:17:43;22.95;;;13.68;;
43626;SDS011;29217;52.586;13.442;2022-08-19T02:20:10;19.15;;;13.30;;
43626;SDS011;29217;52.586;13.442;2022-08-19T02:22:37;20.65;;;14.18;;
43626;SDS011;29217;52.586;13.442;2022-08-19T02:25:06;21.02;;;13.82;;
43626;SDS011;29217;52.586;13.442;2022-08-19T02:27:32;23.88;;;14.30;;
43626;SDS011;29217;52.586;13.442;2022-08-19T02:29:58;19.08;;;13.35;;
43626;SDS011;29217;52.586;13.442;2022-08-19T02:32:24;21.15;;;13.57;;
43626;SDS011;29217;52.586;13.442;2022-08-19T02:34:50;21.80;;;14.05;;
43626;SDS011;29217;52.586;13.442;2022-08-19T02:37:15;31.95;;;13.70;;
43626;SDS011;29217;52.586;13.442;2022-08-19T02:39:59;18.10;;;13.10;;
43626;SDS011;29217;52.586;13.442;2022-08-19T02:42:26;18.00;;;13.40;;
43626;SDS011;29217;52.586;13.442;2022-08-19T02:44:51;22.08;;;12.55;;
43626;SDS011;29217;52.586;13.442;2022-08-19T02:47:17;17.70;;;12.60;;
43626;SDS011;29217;52.586;13.442;2022-08-19T02:49:44;22.25;;;13.27;;
43626;SDS011;29217;52.586;13.442;2022-08-19T02:52:10;20.92;;;12.35;;
43626;SDS011;29217;52.586;13.442;2022-08-19T02:54:36;19.42;;;13.10;;
43626;SDS011;29217;52.586;13.442;2022-08-19T02:57:03;18.65;;;12.80;;
43626;SDS011;29217;52.586;13.442;2022-08-19T02:59:30;17.92;;;13.13;;
43626;SDS011;29217;52.586;13.442;2022-08-19T03:01:56;17.83;;;13.40;;
43626;SDS011;29217;52.586;13.442;2022-08-19T03:04:22;17.95;;;12.68;;
43626;SDS011;29217;52.586;13.442;2022-08-19T03:06:49;16.88;;;12.73;;
43626;SDS011;29217;52.586;13.442;2022-08-19T03:09:15;16.02;;;12.60;;
43626;SDS011;29217;52.586;13.442;2022-08-19T03:11:42;18.25;;;13.25;;
43626;SDS011;29217;52.586;13.442;2022-08-19T03:14:08;19.27;;;13.25;;
43626;SDS011;29217;52.586;13.442;2022-08-19T03:16:40;17.45;;;12.05;;
43626;SDS011;29217;52.586;13.442;2022-08-19T03:19:07;20.10;;;13.30;;
43626;SDS011;29217;52.586;13.442;2022-08-19T03:21:33;17.00;;;12.68;;
43626;SDS011;29217;52.586;13.442;2022-08-19T03:24:00;18.23;;;12.48;;
43626;SDS011;29217;52.586;13.442;2022-08-19T03:26:29;15.60;;;12.30;;
43626;SDS011;29217;52.586;13.442;2022-08-19T03:28:55;16.50;;;13.13;;
43626;SDS011;29217;52.586;13.442;2022-08-19T03:31:22;19.10;;;12.82;;
43626;SDS011;29217;52.586;13.442;2022-08-19T03:33:48;14.80;;;12.07;;
43626;SDS011;29217;52.586;13.442;2022-08-19T03:36:16;18.08;;;13.18;;
43626;SDS011;29217;52.586;13.442;2022-08-19T03:38:46;19.52;;;13.50;;
43626;SDS011;29217;52.586;13.442;2022-08-19T03:41:15;18.80;;;13.88;;
43626;SDS011;29217;52.586;13.442;2022-08-19T03:43:43;19.55;;;13.50;;
43626;SDS011;29217;52.586;13.442;2022-08-19T03:46:14;17.40;;;13.05;;
43626;SDS011;29217;52.586;13.442;2022-08-19T03:48:42;19.20;;;13.18;;
43626;SDS011;29217;52.586;13.442;2022-08-19T03:51:19;17.95;;;12.77;;
43626;SDS011;29217;52.586;13.442;2022-08-19T03:53:45;17.95;;;13.02;;
43626;SDS011;29217;52.586;13.442;2022-08-19T03:56:12;18.08;;;12.88;;
43626;SDS011;29217;52.586;13.442;2022-08-19T03:58:38;15.77;;;12.50;;
43626;SDS011;29217;52.586;13.442;2022-08-19T04:01:08;15.80;;;12.80;;
43626;SDS011;29217;52.586;13.442;2022-08-19T04:03:36;20.70;;;13.73;;
43626;SDS011;29217;52.586;13.442;2022-08-19T04:06:36;22.67;;;14.23;;
43626;SDS011;29217;52.586;13.442;2022-08-19T04:08:56;19.42;;;13.80;;
43626;SDS011;29217;52.586;13.442;2022-08-19T04:11:28;19.30;;;14.18;;
43626;SDS011;29217;52.586;13.442;2022-08-19T04:14:06;23.15;;;14.45;;
43626;SDS011;29217;52.586;13.442;2022-08-19T04:16:32;21.65;;;14.73;;
43626;SDS011;29217;52.586;13.442;2022-08-19T04:18:59;21.35;;;14.75;;
43626;SDS011;29217;52.586;13.442;2022-08-19T04:21:26;20.48;;;15.80;;
43626;SDS011;29217;52.586;13.442;2022-08-19T04:23:52;24.02;;;16.52;;
43626;SDS011;29217;52.586;13.442;2022-08-19T04:26:20;23.35;;;15.98;;
43626;SDS011;29217;52.586;13.442;2022-08-19T04:28:51;24.27;;;16.65;;
43626;SDS011;29217;52.586;13.442;2022-08-19T04:31:27;20.65;;;15.57;;
43626;SDS011;29217;52.586;13.442;2022-08-19T04:33:58;27.25;;;15.60;;
43626;SDS011;29217;52.586;13.442;2022-08-19T04:36:27;18.30;;;15.02;;
43626;SDS011;29217;52.586;13.442;2022-08-19T04:38:55;22.33;;;15.20;;
43626;SDS011;29217;52.586;13.442;2022-08-19T04:41:23;19.45;;;14.30;;
43626;SDS011;29217;52.586;13.442;2022-08-19T04:44:08;21.85;;;14.45;;
43626;SDS011;29217;52.586;13.442;2022-08-19T04:46:34;18.42;;;14.38;;
43626;SDS011;29217;52.586;13.442;2022-08-19T04:49:00;20.60;;;15.55;;
43626;SDS011;29217;52.586;13.442;2022-08-19T04:51:27;23.90;;;15.20;;
43626;SDS011;29217;52.586;13.442;2022-08-19T04:53:52;20.67;;;14.98;;
43626;SDS011;29217;52.586;13.442;2022-08-19T04:56:19;19.65;;;14.68;;
43626;SDS011;29217;52.586;13.442;2022-08-19T04:58:47;21.58;;;14.88;;
43626;SDS011;29217;52.586;13.442;2022-08-19T05:01:17;20.83;;;15.25;;
43626;SDS011;29217;52.586;13.442;2022-08-19T05:03:48;17.80;;;14.07;;
43626;SDS011;29217;52.586;13.442;2022-08-19T05:06:14;19.27;;;14.15;;
43626;SDS011;29217;52.586;13.442;2022-08-19T05:08:41;21.65;;;14.38;;
43626;SDS011;29217;52.586;13.442;2022-08-19T05:11:30;19.55;;;13.82;;
43626;SDS011;29217;52.586;13.442;2022-08-19T05:13:55;17.85;;;13.73;;
43626;SDS011;29217;52.586;13.442;2022-08-19T05:16:22;20.45;;;14.55;;
43626;SDS011;29217;52.586;13.442;2022-08-19T05:18:48;20.33;;;14.55;;
43626;SDS011;29217;52.586;13.442;2022-08-19T05:21:33;25.55;;;14.00;;
43626;SDS011;29217;52.586;13.442;2022-08-19T05:24:19;17.90;;;14.15;;
43626;SDS011;29217;52.586;13.442;2022-08-19T05:26:46;22.15;;;14.57;;
43626;SDS011;29217;52.586;13.442;2022-08-19T05:29:14;19.88;;;14.27;;
43626;SDS011;29217;52.586;13.442;2022-08-19T05:31:41;18.23;;;14.05;;
43626;SDS011;29217;52.586;13.442;2022-08-19T05:34:08;20.15;;;14.50;;
43626;SDS011;29217;52.586;13.442;2022-08-19T05:36:36;19.92;;;13.90;;
43626;SDS011;29217;52.586;13.442;2022-08-19T05:39:04;20.00;;;14.63;;
43626;SDS011;29217;52.586;13.442;2022-08-19T05:41:35;19.17;;;13.57;;
43626;SDS011;29217;52.586;13.442;2022-08-19T05:44:05;19.75;;;13.40;;
43626;SDS011;29217;52.586;13.442;2022-08-19T05:46:33;17.88;;;13.10;;
43626;SDS011;29217;52.586;13.442;2022-08-19T05:49:00;18.88;;;13.65;;
43626;SDS011;29217;52.586;13.442;2022-08-19T05:51:25;17.75;;;13.88;;
43626;SDS011;29217;52.586;13.442;2022-08-19T05:53:51;16.88;;;12.82;;
43626;SDS011;29217;52.586;13.442;2022-08-19T05:56:17;17.55;;;13.48;;
43626;SDS011;29217;52.586;13.442;2022-08-19T05:58:44;20.08;;;14.07;;
43626;SDS011;29217;52.586;13.442;2022-08-19T06:01:14;17.55;;;13.57;;
43626;SDS011;29217;52.586;13.442;2022-08-19T06:03:42;20.20;;;14.55;;
43626;SDS011;29217;52.586;13.442;2022-08-19T06:06:09;16.60;;;13.65;;
43626;SDS011;29217;52.586;13.442;2022-08-19T06:08:36;17.63;;;13.77;;
43626;SDS011;29217;52.586;13.442;2022-08-19T06:11:20;18.27;;;13.70;;
43626;SDS011;29217;52.586;13.442;2022-08-19T06:13:48;19.02;;;14.23;;
43626;SDS011;29217;52.586;13.442;2022-08-19T06:16:17;23.27;;;15.43;;
43626;SDS011;29217;52.586;13.442;2022-08-19T06:18:45;21.17;;;15.15;;
43626;SDS011;29217;52.586;13.442;2022-08-19T06:21:11;19.48;;;15.30;;
43626;SDS011;29217;52.586;13.442;2022-08-19T06:23:37;19.33;;;15.77;;
43626;SDS011;29217;52.586;13.442;2022-08-19T06:26:03;18.02;;;14.77;;
43626;SDS011;29217;52.586;13.442;2022-08-19T06:28:29;21.42;;;14.88;;
43626;SDS011;29217;52.586;13.442;2022-08-19T06:30:55;21.98;;;15.52;;
43626;SDS011;29217;52.586;13.442;2022-08-19T06:33:20;21.10;;;16.08;;
43626;SDS011;29217;52.586;13.442;2022-08-19T06:35:46;20.58;;;15.30;;
43626;SDS011;29217;52.586;13.442;2022-08-19T06:38:11;19.67;;;15.60;;
43626;SDS011;29217;52.586;13.442;2022-08-19T06:40:37;20.75;;;15.68;;
43626;SDS011;29217;52.586;13.442;2022-08-19T06:43:03;24.75;;;16.98;;
43626;SDS011;29217;52.586;13.442;2022-08-19T06:45:29;19.20;;;15.63;;
43626;SDS011;29217;52.586;13.442;2022-08-19T06:47:55;20.98;;;16.45;;
43626;SDS011;29217;52.586;13.442;2022-08-19T06:50:21;20.92;;;15.88;;
43626;SDS011;29217;52.586;13.442;2022-08-19T06:52:48;24.35;;;16.42;;
43626;SDS011;29217;52.586;13.442;2022-08-19T06:55:14;19.52;;;15.82;;
43626;SDS011;29217;52.586;13.442;2022-08-19T06:57:40;31.23;;;16.92;;
43626;SDS011;29217;52.586;13.442;2022-08-19T07:00:07;21.75;;;16.30;;
43626;SDS011;29217;52.586;13.442;2022-08-19T07:02:36;22.23;;;15.38;;
43626;SDS011;29217;52.586;13.442;2022-08-19T07:05:03;23.77;;;16.25;;
43626;SDS011;29217;52.586;13.442;2022-08-19T07:07:30;21.52;;;16.92;;
43626;SDS011;29217;52.586;13.442;2022-08-19T07:09:56;24.05;;;16.95;;
43626;SDS011;29217;52.586;13.442;2022-08-19T07:12:21;24.20;;;16.13;;
43626;SDS011;29217;52.586;13.442;2022-08-19T07:14:47;21.08;;;16.35;;
43626;SDS011;29217;52.586;13.442;2022-08-19T07:17:14;21.35;;;16.55;;
43626;SDS011;29217;52.586;13.442;2022-08-19T07:19:40;21.15;;;16.65;;
43626;SDS011;29217;52.586;13.442;2022-08-19T07:22:08;21.88;;;16.80;;
43626;SDS011;29217;52.586;13.442;2022-08-19T07:24:35;26.02;;;17.95;;
43626;SDS011;29217;52.586;13.442;2022-08-19T07:27:01;22.52;;;16.35;;
43626;SDS011;29217;52.586;13.442;2022-08-19T07:29:29;21.63;;;16.45;;
43626;SDS011;29217;52.586;13.442;2022-08-19T07:31:58;22.27;;;16.83;;
43626;SDS011;29217;52.586;13.442;2022-08-19T07:34:25;21.48;;;15.35;;
43626;SDS011;29217;52.586;13.442;2022-08-19T07:36:52;25.15;;;17.92;;
43626;SDS011;29217;52.586;13.442;2022-08-19T07:39:21;22.45;;;17.60;;
43626;SDS011;29217;52.586;13.442;2022-08-19T07:41:51;22.73;;;17.75;;
43626;SDS011;29217;52.586;13.442;2022-08-19T07:44:18;21.63;;;16.92;;
43626;SDS011;29217;52.586;13.442;2022-08-19T07:46:46;23.70;;;17.75;;
43626;SDS011;29217;52.586;13.442;2022-08-19T07:49:14;26.40;;;17.95;;
43626;SDS011;29217;52.586;13.442;2022-08-19T07:51:45;24.33;;;18.60;;
43626;SDS011;29217;52.586;13.442;2022-08-19T07:54:22;20.90;;;16.42;;
43626;SDS011;29217;52.586;13.442;2022-08-19T07:56:49;22.63;;;17.92;;
43626;SDS011;29217;52.586;13.442;2022-08-19T07:59:18;22.27;;;17.60;;
43626;SDS011;29217;52.586;13.442;2022-08-19T08:01:47;27.75;;;19.13;;
43626;SDS011;29217;52.586;13.442;2022-08-19T08:04:15;23.88;;;18.38;;
43626;SDS011;29217;52.586;13.442;2022-08-19T08:06:59;27.27;;;18.40;;
43626;SDS011;29217;52.586;13.442;2022-08-19T08:09:44;27.23;;;19.17;;
43626;SDS011;29217;52.586;13.442;2022-08-19T08:14:41;25.25;;;18.65;;
43626;SDS011;29217;52.586;13.442;2022-08-19T08:17:09;25.35;;;19.08;;
43626;SDS011;29217;52.586;13.442;2022-08-19T08:19:35;31.15;;;18.95;;
43626;SDS011;29217;52.586;13.442;2022-08-19T08:22:02;27.33;;;18.60;;
43626;SDS011;29217;52.586;13.442;2022-08-19T08:24:30;23.88;;;18.05;;
43626;SDS011;29217;52.586;13.442;2022-08-19T08:26:57;21.67;;;16.30;;
43626;SDS011;29217;52.586;13.442;2022-08-19T08:29:24;21.50;;;17.70;;
43626;SDS011;29217;52.586;13.442;2022-08-19T08:31:54;22.63;;;17.38;;
43626;SDS011;29217;52.586;13.442;2022-08-19T08:34:20;21.25;;;16.27;;
43626;SDS011;29217;52.586;13.442;2022-08-19T08:36:46;25.95;;;18.30;;
43626;SDS011;29217;52.586;13.442;2022-08-19T08:39:15;24.95;;;18.90;;
43626;SDS011;29217;52.586;13.442;2022-08-19T08:44:57;23.25;;;17.88;;
43626;SDS011;29217;52.586;13.442;2022-08-19T08:47:26;23.73;;;18.20;;
43626;SDS011;29217;52.586;13.442;2022-08-19T08:50:05;21.02;;;18.02;;
43626;SDS011;29217;52.586;13.442;2022-08-19T08:52:37;24.17;;;17.50;;
43626;SDS011;29217;52.586;13.442;2022-08-19T08:55:09;25.83;;;17.55;;
43626;SDS011;29217;52.586;13.442;2022-08-19T08:57:48;23.40;;;16.92;;
43626;SDS011;29217;52.586;13.442;2022-08-19T09:00:32;22.15;;;17.90;;
43626;SDS011;29217;52.586;13.442;2022-08-19T09:03:00;26.45;;;17.85;;
43626;SDS011;29217;52.586;13.442;2022-08-19T09:05:32;24.92;;;17.80;;
43626;SDS011;29217;52.586;13.442;2022-08-19T09:08:17;23.60;;;16.75;;
43626;SDS011;29217;52.586;13.442;2022-08-19T09:10:51;22.08;;;17.30;;
43626;SDS011;29217;52.586;13.442;2022-08-19T09:15:48;22.77;;;16.15;;
43626;SDS011;29217;52.586;13.442;2022-08-19T09:18:18;20.45;;;16.20;;
43626;SDS011;29217;52.586;13.442;2022-08-19T09:20:44;21.10;;;16.85;;
43626;SDS011;29217;52.586;13.442;2022-08-19T09:23:12;21.30;;;16.02;;
43626;SDS011;29217;52.586;13.442;2022-08-19T09:25:37;20.52;;;15.65;;
43626;SDS011;29217;52.586;13.442;2022-08-19T09:28:05;16.88;;;14.55;;
43626;SDS011;29217;52.586;13.442;2022-08-19T09:30:32;19.20;;;14.80;;
43626;SDS011;29217;52.586;13.442;2022-08-19T09:33:04;17.52;;;13.88;;
43626;SDS011;29217;52.586;13.442;2022-08-19T09:35:30;17.58;;;13.35;;
43626;SDS011;29217;52.586;13.442;2022-08-19T09:37:56;16.85;;;13.35;;
43626;SDS011;29217;52.586;13.442;2022-08-19T09:40:22;15.70;;;12.55;;
43626;SDS011;29217;52.586;13.442;2022-08-19T09:42:50;18.45;;;12.75;;
43626;SDS011;29217;52.586;13.442;2022-08-19T09:45:17;20.95;;;13.50;;
43626;SDS011;29217;52.586;13.442;2022-08-19T09:47:46;18.58;;;13.38;;
43626;SDS011;29217;52.586;13.442;2022-08-19T09:50:13;20.02;;;13.55;;
43626;SDS011;29217;52.586;13.442;2022-08-19T09:52:39;16.55;;;13.05;;
43626;SDS011;29217;52.586;13.442;2022-08-19T09:55:07;15.82;;;12.13;;
43626;SDS011;29217;52.586;13.442;2022-08-19T09:57:34;17.50;;;13.52;;
43626;SDS011;29217;52.586;13.442;2022-08-19T10:00:00;14.85;;;12.52;;
43626;SDS011;29217;52.586;13.442;2022-08-19T10:02:26;15.57;;;12.10;;
43626;SDS011;29217;52.586;13.442;2022-08-19T10:04:52;17.27;;;12.90;;
43626;SDS011;29217;52.586;13.442;2022-08-19T10:07:36;15.32;;;12.30;;
43626;SDS011;29217;52.586;13.442;2022-08-19T10:10:05;15.65;;;11.70;;
43626;SDS011;29217;52.586;13.442;2022-08-19T10:12:31;14.65;;;12.35;;
43626;SDS011;29217;52.586;13.442;2022-08-19T10:14:58;17.70;;;11.70;;
43626;SDS011;29217;52.586;13.442;2022-08-19T10:17:24;15.20;;;11.60;;
43626;SDS011;29217;52.586;13.442;2022-08-19T10:19:50;17.42;;;12.45;;
43626;SDS011;29217;52.586;13.442;2022-08-19T10:22:16;14.98;;;11.13;;
43626;SDS011;29217;52.586;13.442;2022-08-19T10:24:43;14.07;;;11.63;;
43626;SDS011;29217;52.586;13.442;2022-08-19T10:27:08;13.63;;;12.13;;
43626;SDS011;29217;52.586;13.442;2022-08-19T10:29:34;14.65;;;11.68;;
43626;SDS011;29217;52.586;13.442;2022-08-19T10:32:01;19.55;;;12.23;;
43626;SDS011;29217;52.586;13.442;2022-08-19T10:34:29;16.02;;;12.45;;
43626;SDS011;29217;52.586;13.442;2022-08-19T10:36:56;19.02;;;12.23;;
43626;SDS011;29217;52.586;13.442;2022-08-19T10:39:22;15.55;;;12.18;;
43626;SDS011;29217;52.586;13.442;2022-08-19T10:41:48;15.27;;;12.32;;
43626;SDS011;29217;52.586;13.442;2022-08-19T10:44:13;18.50;;;12.43;;
43626;SDS011;29217;52.586;13.442;2022-08-19T10:46:41;18.50;;;12.40;;
43626;SDS011;29217;52.586;13.442;2022-08-19T10:49:11;16.00;;;12.88;;
43626;SDS011;29217;52.586;13.442;2022-08-19T10:51:38;18.45;;;12.60;;
43626;SDS011;29217;52.586;13.442;2022-08-19T10:54:23;14.02;;;11.02;;
43626;SDS011;29217;52.586;13.442;2022-08-19T10:57:09;15.20;;;12.13;;
43626;SDS011;29217;52.586;13.442;2022-08-19T10:59:35;15.75;;;12.13;;
43626;SDS011;29217;52.586;13.442;2022-08-19T11:02:01;17.38;;;11.65;;
43626;SDS011;29217;52.586;13.442;2022-08-19T11:04:28;14.73;;;11.50;;
43626;SDS011;29217;52.586;13.442;2022-08-19T11:06:53;13.30;;;11.57;;
43626;SDS011;29217;52.586;13.442;2022-08-19T11:09:21;15.65;;;12.27;;
43626;SDS011;29217;52.586;13.442;2022-08-19T11:11:54;15.35;;;12.13;;
43626;SDS011;29217;52.586;13.442;2022-08-19T11:14:22;15.63;;;12.52;;
43626;SDS011;29217;52.586;13.442;2022-08-19T11:16:49;14.05;;;12.32;;
43626;SDS011;29217;52.586;13.442;2022-08-19T11:19:16;17.00;;;11.88;;
43626;SDS011;29217;52.586;13.442;2022-08-19T11:21:44;17.33;;;12.32;;
43626;SDS011;29217;52.586;13.442;2022-08-19T11:24:13;14.77;;;12.00;;
43626;SDS011;29217;52.586;13.442;2022-08-19T11:26:41;16.65;;;12.60;;
43626;SDS011;29217;52.586;13.442;2022-08-19T11:29:08;15.57;;;11.93;;
43626;SDS011;29217;52.586;13.442;2022-08-19T11:31:36;19.55;;;12.38;;
43626;SDS011;29217;52.586;13.442;2022-08-19T11:34:04;16.83;;;11.77;;
43626;SDS011;29217;52.586;13.442;2022-08-19T11:36:31;17.15;;;11.73;;
43626;SDS011;29217;52.586;13.442;2022-08-19T11:38:58;16.35;;;12.07;;
43626;SDS011;29217;52.586;13.442;2022-08-19T11:41:24;17.08;;;11.52;;
43626;SDS011;29217;52.586;13.442;2022-08-19T11:43:50;14.57;;;11.80;;
43626;SDS011;29217;52.586;13.442;2022-08-19T11:46:20;14.38;;;11.73;;
43626;SDS011;29217;52.586;13.442;2022-08-19T11:48:48;17.88;;;11.07;;
43626;SDS011;29217;52.586;13.442;2022-08-19T11:51:15;15.02;;;11.35;;
43626;SDS011;29217;52.586;13.442;2022-08-19T11:53:43;15.40;;;11.15;;
43626;SDS011;29217;52.586;13.442;2022-08-19T11:56:10;18.00;;;10.10;;
43626;SDS011;29217;52.586;13.442;2022-08-19T11:58:36;24.83;;;11.05;;
43626;SDS011;29217;52.586;13.442;2022-08-19T12:01:10;20.35;;;10.55;;
43626;SDS011;29217;52.586;13.442;2022-08-19T12:03:40;21.42;;;10.90;;
43626;SDS011;29217;52.586;13.442;2022-08-19T12:06:09;18.40;;;9.60;;
43626;SDS011;29217;52.586;13.442;2022-08-19T12:08:38;12.10;;;10.02;;
43626;SDS011;29217;52.586;13.442;2022-08-19T12:11:04;10.52;;;8.93;;
43626;SDS011;29217;52.586;13.442;2022-08-19T12:13:32;11.25;;;9.05;;
43626;SDS011;29217;52.586;13.442;2022-08-19T12:15:59;11.05;;;8.88;;
43626;SDS011;29217;52.586;13.442;2022-08-19T12:18:25;12.23;;;8.57;;
43626;SDS011;29217;52.586;13.442;2022-08-19T12:20:52;12.93;;;8.02;;
43626;SDS011;29217;52.586;13.442;2022-08-19T12:23:19;11.20;;;9.18;;
43626;SDS011;29217;52.586;13.442;2022-08-19T12:25:46;10.73;;;9.15;;
43626;SDS011;29217;52.586;13.442;2022-08-19T12:28:16;10.77;;;8.55;;
43626;SDS011;29217;52.586;13.442;2022-08-19T12:30:47;10.35;;;8.35;;
43626;SDS011;29217;52.586;13.442;2022-08-19T12:33:13;10.10;;;8.38;;
43626;SDS011;29217;52.586;13.442;2022-08-19T12:35:40;12.27;;;8.60;;
43626;SDS011;29217;52.586;13.442;2022-08-19T12:38:07;11.05;;;8.18;;
43626;SDS011;29217;52.586;13.442;2022-08-19T12:40:33;13.68;;;8.88;;
43626;SDS011;29217;52.586;13.442;2022-08-19T12:42:59;12.55;;;8.40;;
43626;SDS011;29217;52.586;13.442;2022-08-19T12:45:24;11.32;;;8.73;;
43626;SDS011;29217;52.586;13.442;2022-08-19T12:47:50;10.32;;;7.97;;
43626;SDS011;29217;52.586;13.442;2022-08-19T12:50:17;10.70;;;8.77;;
43626;SDS011;29217;52.586;13.442;2022-08-19T12:52:44;10.77;;;8.73;;
43626;SDS011;29217;52.586;13.442;2022-08-19T12:55:10;13.98;;;8.98;;
43626;SDS011;29217;52.586;13.442;2022-08-19T12:57:36;11.30;;;8.52;;
43626;SDS011;29217;52.586;13.442;2022-08-19T13:00:06;10.07;;;8.77;;
43626;SDS011;29217;52.586;13.442;2022-08-19T13:02:40;10.10;;;8.80;;
43626;SDS011;29217;52.586;13.442;2022-08-19T13:05:12;12.68;;;8.35;;
43626;SDS011;29217;52.586;13.442;2022-08-19T13:07:40;12.00;;;9.30;;
43626;SDS011;29217;52.586;13.442;2022-08-19T13:10:11;13.00;;;9.38;;
43626;SDS011;29217;52.586;13.442;2022-08-19T13:12:40;11.60;;;9.23;;
43626;SDS011;29217;52.586;13.442;2022-08-19T13:15:06;13.18;;;8.82;;
43626;SDS011;29217;52.586;13.442;2022-08-19T13:17:33;12.13;;;8.90;;
43626;SDS011;29217;52.586;13.442;2022-08-19T13:20:00;9.75;;;8.43;;
43626;SDS011;29217;52.586;13.442;2022-08-19T13:22:26;12.68;;;9.00;;
43626;SDS011;29217;52.586;13.442;2022-08-19T13:24:52;12.93;;;9.35;;
43626;SDS011;29217;52.586;13.442;2022-08-19T13:27:17;13.05;;;9.02;;
43626;SDS011;29217;52.586;13.442;2022-08-19T13:29:43;14.70;;;9.15;;
43626;SDS011;29217;52.586;13.442;2022-08-19T13:32:28;10.68;;;9.20;;
43626;SDS011;29217;52.586;13.442;2022-08-19T13:35:13;12.50;;;9.30;;
43626;SDS011;29217;52.586;13.442;2022-08-19T13:37:39;11.48;;;8.85;;
43626;SDS011;29217;52.586;13.442;2022-08-19T13:40:09;13.82;;;9.23;;
43626;SDS011;29217;52.586;13.442;2022-08-19T13:42:39;11.32;;;9.43;;
43626;SDS011;29217;52.586;13.442;2022-08-19T13:45:05;14.02;;;10.00;;
43626;SDS011;29217;52.586;13.442;2022-08-19T13:47:33;12.38;;;8.95;;
43626;SDS011;29217;52.586;13.442;2022-08-19T13:50:11;9.85;;;8.85;;
43626;SDS011;29217;52.586;13.442;2022-08-19T13:52:39;14.25;;;10.18;;
43626;SDS011;29217;52.586;13.442;2022-08-19T13:55:05;10.57;;;9.43;;
43626;SDS011;29217;52.586;13.442;2022-08-19T13:57:32;11.95;;;9.35;;
43626;SDS011;29217;52.586;13.442;2022-08-19T13:59:58;14.45;;;9.30;;
43626;SDS011;29217;52.586;13.442;2022-08-19T14:02:24;10.30;;;8.82;;
43626;SDS011;29217;52.586;13.442;2022-08-19T14:04:51;10.50;;;9.13;;
43626;SDS011;29217;52.586;13.442;2022-08-19T14:07:17;11.82;;;8.95;;
43626;SDS011;29217;52.586;13.442;2022-08-19T14:09:42;13.43;;;8.65;;
43626;SDS011;29217;52.586;13.442;2022-08-19T14:12:08;11.18;;;9.00;;
43626;SDS011;29217;52.586;13.442;2022-08-19T14:14:39;13.27;;;9.80;;
43626;SDS011;29217;52.586;13.442;2022-08-19T14:17:05;13.18;;;8.30;;
43626;SDS011;29217;52.586;13.442;2022-08-19T14:19:32;9.60;;;8.38;;
43626;SDS011;29217;52.586;13.442;2022-08-19T14:21:58;12.88;;;8.75;;
43626;SDS011;29217;52.586;13.442;2022-08-19T14:24:23;10.70;;;9.05;;
43626;SDS011;29217;52.586;13.442;2022-08-19T14:26:49;11.27;;;9.57;;
43626;SDS011;29217;52.586;13.442;2022-08-19T14:29:14;14.85;;;9.45;;